createdAt,value
2016-06-24T00:00:00.267Z,957.57
2016-06-24T00:01:01.076Z,957.64
2016-06-24T00:02:00.185Z,957.56
2016-06-24T00:03:00.189Z,957.62
2016-06-24T00:04:00.241Z,957.57
2016-06-24T00:05:00.202Z,957.6
2016-06-24T00:06:00.212Z,957.56
2016-06-24T00:07:03.543Z,957.59
2016-06-24T00:08:25.432Z,957.55
2016-06-24T00:09:33.499Z,957.5
2016-06-24T00:10:37.579Z,957.49
2016-06-24T00:11:38.716Z,957.47
2016-06-24T00:12:48.602Z,957.47
2016-06-24T00:13:51.226Z,957.48
2016-06-24T00:15:15.446Z,957.46
2016-06-24T00:16:39.350Z,957.51
2016-06-24T00:18:01.389Z,957.44
2016-06-24T00:19:42.044Z,957.5
2016-06-24T00:21:17.519Z,957.47
2016-06-24T00:22:43.551Z,957.45
2016-06-24T00:24:19.888Z,957.49
2016-06-24T00:25:51.970Z,957.44
2016-06-24T00:27:32.367Z,957.45
2016-06-24T00:29:00.052Z,957.36
2016-06-24T00:30:29.085Z,957.36
2016-06-24T00:31:47.208Z,957.39
2016-06-24T00:33:21.618Z,957.39
2016-06-24T00:35:02.883Z,957.38
2016-06-24T00:36:28.275Z,957.43
2016-06-24T00:37:14.256Z,957.46
2016-06-24T00:38:13.582Z,957.45
2016-06-24T00:39:14.539Z,957.46
2016-06-24T00:40:13.889Z,957.5
2016-06-24T00:41:14.763Z,957.47
2016-06-24T00:42:17.295Z,957.48
2016-06-24T00:43:13.677Z,957.46
2016-06-24T00:44:16.475Z,957.45
2016-06-24T00:45:16.466Z,957.41
2016-06-24T00:46:16.546Z,957.38
2016-06-24T00:47:16.313Z,957.39
2016-06-24T00:48:19.756Z,957.44
2016-06-24T00:49:14.026Z,957.51
2016-06-24T00:50:13.787Z,957.47
2016-06-24T00:51:14.948Z,957.46
2016-06-24T00:52:14.669Z,957.5
2016-06-24T00:53:13.775Z,957.5
2016-06-24T00:54:14.799Z,957.51
2016-06-24T00:55:13.628Z,957.57
2016-06-24T00:56:13.834Z,957.57
2016-06-24T00:57:13.799Z,957.61
2016-06-24T00:58:14.688Z,957.61
2016-06-24T00:59:13.823Z,957.62
2016-06-24T01:00:13.574Z,957.69
2016-06-24T01:01:14.827Z,957.66
2016-06-24T01:02:14.400Z,957.67
2016-06-24T01:03:14.344Z,957.66
2016-06-24T01:04:13.646Z,957.79
2016-06-24T01:05:13.700Z,957.84
2016-06-24T01:06:13.836Z,957.84
2016-06-24T01:07:13.868Z,957.88
2016-06-24T01:08:13.866Z,957.89
2016-06-24T01:09:13.681Z,957.92
2016-06-24T01:10:14.689Z,957.98
2016-06-24T01:11:14.783Z,957.97
2016-06-24T01:12:14.895Z,957.97
2016-06-24T01:13:13.821Z,957.97
2016-06-24T01:14:15.054Z,958
2016-06-24T01:15:13.762Z,957.99
2016-06-24T01:16:13.945Z,958.02
2016-06-24T01:17:15.741Z,958.03
2016-06-24T01:18:15.116Z,958.04
2016-06-24T01:19:14.932Z,958.07
2016-06-24T01:20:13.656Z,958.14
2016-06-24T01:21:13.581Z,958.17
2016-06-24T01:22:13.851Z,958.23
2016-06-24T01:23:15.536Z,958.23
2016-06-24T01:24:14.354Z,958.18
2016-06-24T01:25:13.617Z,958.2
2016-06-24T01:26:13.585Z,958.24
2016-06-24T01:27:13.672Z,958.26
2016-06-24T01:28:13.710Z,958.23
2016-06-24T01:29:13.628Z,958.25
2016-06-24T01:30:13.830Z,958.24
2016-06-24T01:31:14.421Z,958.2
2016-06-24T01:32:14.478Z,958.2
2016-06-24T01:33:14.648Z,958.2
2016-06-24T01:34:13.590Z,958.26
2016-06-24T01:35:14.450Z,958.2
2016-06-24T01:36:14.848Z,958.22
2016-06-24T01:37:14.615Z,958.18
2016-06-24T01:38:13.628Z,958.17
2016-06-24T01:39:13.632Z,958.09
2016-06-24T01:40:13.847Z,958.08
2016-06-24T01:41:14.902Z,958.07
2016-06-24T01:42:14.404Z,958.06
2016-06-24T01:43:14.397Z,958.08
2016-06-24T01:44:14.364Z,958.02
2016-06-24T01:45:14.406Z,958.1
2016-06-24T01:46:13.567Z,958.1
2016-06-24T01:47:13.615Z,958.13
2016-06-24T01:48:13.832Z,958.11
2016-06-24T01:49:13.768Z,958.07
2016-06-24T01:50:14.765Z,958.03
2016-06-24T01:51:14.760Z,958.06
2016-06-24T01:52:14.479Z,958.04
2016-06-24T01:53:14.433Z,958
2016-06-24T01:54:15.224Z,958.01
2016-06-24T01:55:14.419Z,958.01
2016-06-24T01:56:13.599Z,958.01
2016-06-24T01:57:14.385Z,958.02
2016-06-24T01:58:14.619Z,957.99
2016-06-24T01:59:14.655Z,958.05
2016-06-24T02:00:13.907Z,958.05
2016-06-24T02:01:14.331Z,958.05
2016-06-24T02:02:13.624Z,957.99
2016-06-24T02:03:13.864Z,957.99
2016-06-24T02:04:13.671Z,958
2016-06-24T02:05:14.702Z,958.02
2016-06-24T02:06:16.112Z,957.99
2016-06-24T02:07:13.594Z,957.95
2016-06-24T02:08:13.647Z,957.99
2016-06-24T02:09:14.445Z,957.99
2016-06-24T02:10:13.658Z,957.99
2016-06-24T02:11:13.868Z,958.03
2016-06-24T02:12:15.766Z,958.06
2016-06-24T02:13:13.636Z,958.01
2016-06-24T02:14:14.782Z,958.04
2016-06-24T02:15:14.471Z,958.03
2016-06-24T02:16:13.660Z,958
2016-06-24T02:17:13.624Z,958.01
2016-06-24T02:18:14.382Z,958
2016-06-24T02:19:13.587Z,957.99
2016-06-24T02:20:13.644Z,958.01
2016-06-24T02:21:14.406Z,958.01
2016-06-24T02:22:14.460Z,958.05
2016-06-24T02:23:13.741Z,958.03
2016-06-24T02:24:13.795Z,958.04
2016-06-24T02:25:14.446Z,958.05
2016-06-24T02:26:14.421Z,958.07
2016-06-24T02:27:16.337Z,958.07
2016-06-24T02:28:16.280Z,958.02
2016-06-24T02:29:16.414Z,958.07
2016-06-24T02:30:16.239Z,958.04
2016-06-24T02:31:16.013Z,958.02
2016-06-24T02:32:16.477Z,957.99
2016-06-24T02:33:16.291Z,958.01
2016-06-24T02:34:16.325Z,958.09
2016-06-24T02:35:16.474Z,958
2016-06-24T02:36:19.266Z,958.03
2016-06-24T02:37:13.561Z,957.97
2016-06-24T02:38:14.471Z,957.97
2016-06-24T02:39:13.533Z,957.96
2016-06-24T02:40:14.413Z,957.98
2016-06-24T02:41:13.615Z,957.97
2016-06-24T02:42:13.504Z,957.94
2016-06-24T02:43:13.570Z,957.95
2016-06-24T02:44:14.407Z,957.98
2016-06-24T02:45:13.603Z,957.97
2016-06-24T02:46:13.801Z,957.96
2016-06-24T02:47:14.852Z,957.97
2016-06-24T02:48:13.934Z,957.97
2016-06-24T02:49:14.013Z,957.97
2016-06-24T02:50:14.582Z,958
2016-06-24T02:51:14.735Z,957.98
2016-06-24T02:52:20.035Z,957.99
2016-06-24T02:53:14.738Z,958.01
2016-06-24T02:54:13.530Z,958.02
2016-06-24T02:55:13.750Z,957.97
2016-06-24T02:56:13.706Z,957.98
2016-06-24T02:57:13.758Z,957.96
2016-06-24T02:58:14.631Z,957.99
2016-06-24T02:59:13.708Z,957.98
2016-06-24T03:00:13.717Z,957.96
2016-06-24T03:01:13.482Z,957.96
2016-06-24T03:02:13.529Z,957.98
2016-06-24T03:03:13.733Z,957.96
2016-06-24T03:04:13.538Z,957.97
2016-06-24T03:05:13.751Z,957.94
2016-06-24T03:06:13.563Z,957.97
2016-06-24T03:07:13.553Z,957.98
2016-06-24T03:08:13.547Z,958.03
2016-06-24T03:09:13.563Z,958.02
2016-06-24T03:10:13.530Z,958.02
2016-06-24T03:11:13.490Z,958.04
2016-06-24T03:12:13.747Z,958.02
2016-06-24T03:13:13.528Z,958.03
2016-06-24T03:14:13.676Z,958.03
2016-06-24T03:15:13.506Z,957.99
2016-06-24T03:16:13.560Z,958
2016-06-24T03:17:13.557Z,957.99
2016-06-24T03:18:13.648Z,957.96
2016-06-24T03:19:13.707Z,957.99
2016-06-24T03:20:13.624Z,957.99
2016-06-24T03:21:13.497Z,957.97
2016-06-24T03:22:13.606Z,957.97
2016-06-24T03:23:13.514Z,957.97
2016-06-24T03:24:13.484Z,957.96
2016-06-24T03:25:13.578Z,957.98
2016-06-24T03:26:13.588Z,957.96
2016-06-24T03:27:13.520Z,957.96
2016-06-24T03:28:13.581Z,957.96
2016-06-24T03:29:13.535Z,957.95
2016-06-24T03:30:13.473Z,957.93
2016-06-24T03:31:13.563Z,957.94
2016-06-24T03:32:13.546Z,957.9
2016-06-24T03:33:13.470Z,957.94
2016-06-24T03:34:13.459Z,957.94
2016-06-24T03:35:13.422Z,957.94
2016-06-24T03:36:13.524Z,958
2016-06-24T03:37:13.497Z,957.96
2016-06-24T03:38:13.471Z,957.97
2016-06-24T03:39:13.458Z,957.91
2016-06-24T03:40:13.466Z,957.97
2016-06-24T03:41:13.456Z,957.98
2016-06-24T03:42:13.447Z,957.97
2016-06-24T03:43:13.756Z,957.98
2016-06-24T03:44:13.705Z,957.98
2016-06-24T03:45:13.642Z,957.93
2016-06-24T03:46:13.684Z,957.95
2016-06-24T03:47:13.609Z,957.97
2016-06-24T03:48:13.633Z,957.99
2016-06-24T03:49:13.637Z,957.94
2016-06-24T03:50:13.651Z,957.96
2016-06-24T03:51:14.511Z,957.98
2016-06-24T03:52:13.635Z,957.97
2016-06-24T03:53:13.639Z,957.97
2016-06-24T03:54:15.597Z,957.95
2016-06-24T03:55:13.452Z,957.92
2016-06-24T03:56:13.634Z,957.94
2016-06-24T03:57:13.444Z,957.9
2016-06-24T03:58:13.624Z,957.93
2016-06-24T03:59:13.421Z,957.91
2016-06-24T04:00:13.460Z,957.9
2016-06-24T04:01:13.412Z,957.9
2016-06-24T04:02:13.564Z,957.89
2016-06-24T04:03:14.460Z,957.88
2016-06-24T04:04:13.691Z,957.87
2016-06-24T04:05:13.598Z,957.87
2016-06-24T04:06:13.557Z,957.83
2016-06-24T04:07:13.362Z,957.84
2016-06-24T04:08:13.421Z,957.84
2016-06-24T04:09:13.386Z,957.86
2016-06-24T04:10:14.513Z,957.83
2016-06-24T04:11:14.406Z,957.81
2016-06-24T04:12:13.398Z,957.79
2016-06-24T04:13:13.652Z,957.81
2016-06-24T04:14:13.617Z,957.82
2016-06-24T04:15:13.641Z,957.83
2016-06-24T04:16:13.561Z,957.85
2016-06-24T04:17:13.577Z,957.85
2016-06-24T04:18:13.596Z,957.85
2016-06-24T04:19:13.591Z,957.83
2016-06-24T04:20:13.583Z,957.85
2016-06-24T04:21:13.569Z,957.86
2016-06-24T04:22:13.649Z,957.85
2016-06-24T04:23:13.597Z,957.85
2016-06-24T04:24:13.545Z,957.84
2016-06-24T04:25:13.563Z,957.82
2016-06-24T04:26:13.358Z,957.86
2016-06-24T04:27:13.342Z,957.86
2016-06-24T04:28:13.582Z,957.86
2016-06-24T04:29:13.622Z,957.86
2016-06-24T04:30:13.602Z,957.89
2016-06-24T04:31:13.663Z,957.91
2016-06-24T04:32:13.588Z,957.93
2016-06-24T04:33:13.326Z,957.93
2016-06-24T04:34:13.385Z,957.92
2016-06-24T04:35:14.398Z,957.96
2016-06-24T04:36:13.298Z,957.95
2016-06-24T04:37:14.774Z,957.96
2016-06-24T04:38:13.598Z,957.93
2016-06-24T04:39:13.499Z,957.94
2016-06-24T04:40:13.555Z,957.99
2016-06-24T04:41:13.498Z,957.94
2016-06-24T04:42:13.665Z,957.96
2016-06-24T04:43:13.590Z,957.98
2016-06-24T04:44:13.574Z,957.96
2016-06-24T04:45:13.338Z,957.95
2016-06-24T04:46:13.540Z,957.99
2016-06-24T04:47:13.356Z,957.95
2016-06-24T04:48:13.308Z,957.93
2016-06-24T04:49:14.460Z,957.98
2016-06-24T04:50:13.345Z,957.96
2016-06-24T04:51:13.342Z,957.99
2016-06-24T04:52:13.276Z,957.96
2016-06-24T04:53:13.578Z,957.97
2016-06-24T04:54:13.341Z,958
2016-06-24T04:55:29.761Z,958
2016-06-24T04:56:13.526Z,957.98
2016-06-24T04:57:13.514Z,957.97
2016-06-24T04:58:13.575Z,957.95
2016-06-24T04:59:13.658Z,957.91
2016-06-24T05:00:13.506Z,957.97
2016-06-24T05:01:13.634Z,957.91
2016-06-24T05:02:14.461Z,957.91
2016-06-24T05:03:13.429Z,957.93
2016-06-24T05:04:13.665Z,957.93
2016-06-24T05:05:13.515Z,957.96
2016-06-24T05:06:13.334Z,957.95
2016-06-24T05:07:13.289Z,957.91
2016-06-24T05:08:13.276Z,957.91
2016-06-24T05:09:13.292Z,957.87
2016-06-24T05:10:13.305Z,957.9
2016-06-24T05:11:13.278Z,957.86
2016-06-24T05:12:13.299Z,957.86
2016-06-24T05:13:13.319Z,957.9
2016-06-24T05:14:13.332Z,957.84
2016-06-24T05:15:13.457Z,957.86
2016-06-24T05:16:13.551Z,957.86
2016-06-24T05:17:13.376Z,957.91
2016-06-24T05:18:13.559Z,957.89
2016-06-24T05:19:13.360Z,957.88
2016-06-24T05:20:13.576Z,957.85
2016-06-24T05:21:13.480Z,957.9
2016-06-24T05:22:13.502Z,957.89
2016-06-24T05:23:13.469Z,957.84
2016-06-24T05:24:13.622Z,957.81
2016-06-24T05:25:13.520Z,957.83
2016-06-24T05:26:13.500Z,957.84
2016-06-24T05:27:13.546Z,957.86
2016-06-24T05:28:13.324Z,957.87
2016-06-24T05:29:13.513Z,957.83
2016-06-24T05:30:13.502Z,957.82
2016-06-24T05:31:13.521Z,957.85
2016-06-24T05:32:13.508Z,957.85
2016-06-24T05:33:13.506Z,957.86
2016-06-24T05:34:13.562Z,957.85
2016-06-24T05:35:13.478Z,957.86
2016-06-24T05:36:13.305Z,957.82
2016-06-24T05:37:13.313Z,957.85
2016-06-24T05:38:13.510Z,957.84
2016-06-24T05:39:13.579Z,957.81
2016-06-24T05:40:13.298Z,957.79
2016-06-24T05:41:13.282Z,957.8
2016-06-24T05:42:13.337Z,957.82
2016-06-24T05:43:13.340Z,957.76
2016-06-24T05:44:13.292Z,957.8
2016-06-24T05:45:13.245Z,957.77
2016-06-24T05:46:13.518Z,957.78
2016-06-24T05:47:13.504Z,957.75
2016-06-24T05:48:13.530Z,957.68
2016-06-24T05:49:13.577Z,957.71
2016-06-24T05:50:13.507Z,957.67
2016-06-24T05:51:13.639Z,957.67
2016-06-24T05:52:13.485Z,957.63
2016-06-24T05:53:13.612Z,957.61
2016-06-24T05:54:13.518Z,957.62
2016-06-24T05:55:13.570Z,957.59
2016-06-24T05:56:13.558Z,957.54
2016-06-24T05:57:13.375Z,957.58
2016-06-24T05:58:13.315Z,957.6
2016-06-24T05:59:13.493Z,957.6
2016-06-24T06:00:13.276Z,957.65
2016-06-24T06:01:13.251Z,957.61
2016-06-24T06:02:13.474Z,957.66
2016-06-24T06:03:13.487Z,957.66
2016-06-24T06:04:13.448Z,957.67
2016-06-24T06:05:13.887Z,957.73
2016-06-24T06:06:13.276Z,957.76
2016-06-24T06:07:13.266Z,957.77
2016-06-24T06:08:13.300Z,957.81
2016-06-24T06:09:13.415Z,957.79
2016-06-24T06:10:13.334Z,957.79
2016-06-24T06:11:13.312Z,957.8
2016-06-24T06:12:13.486Z,957.82
2016-06-24T06:13:13.356Z,957.84
2016-06-24T06:14:13.270Z,957.84
2016-06-24T06:15:13.574Z,957.87
2016-06-24T06:16:13.327Z,957.85
2016-06-24T06:17:13.616Z,957.84
2016-06-24T06:18:13.492Z,957.82
2016-06-24T06:19:13.287Z,957.86
2016-06-24T06:20:13.517Z,957.82
2016-06-24T06:21:13.623Z,957.83
2016-06-24T06:22:13.413Z,957.82
2016-06-24T06:23:13.473Z,957.81
2016-06-24T06:24:13.498Z,957.81
2016-06-24T06:25:13.476Z,957.77
2016-06-24T06:26:13.269Z,957.75
2016-06-24T06:27:13.348Z,957.78
2016-06-24T06:28:13.236Z,957.77
2016-06-24T06:29:13.291Z,957.8
2016-06-24T06:30:13.561Z,957.76
2016-06-24T06:31:13.268Z,957.75
2016-06-24T06:32:13.434Z,957.72
2016-06-24T06:33:13.289Z,957.74
2016-06-24T06:34:13.369Z,957.78
2016-06-24T06:35:13.298Z,957.78
2016-06-24T06:36:13.374Z,957.77
2016-06-24T06:37:13.273Z,957.79
2016-06-24T06:38:13.304Z,957.82
2016-06-24T06:39:13.578Z,957.81
2016-06-24T06:40:13.276Z,957.82
2016-06-24T06:41:13.587Z,957.83
2016-06-24T06:42:13.281Z,957.87
2016-06-24T06:43:13.513Z,957.88
2016-06-24T06:44:13.539Z,957.87
2016-06-24T06:45:13.309Z,957.84
2016-06-24T06:46:13.487Z,957.81
2016-06-24T06:47:13.481Z,957.83
2016-06-24T06:48:13.302Z,957.82
2016-06-24T06:49:13.511Z,957.86
2016-06-24T06:50:13.475Z,957.84
2016-06-24T06:51:13.492Z,957.78
2016-06-24T06:52:13.535Z,957.77
2016-06-24T06:53:13.482Z,957.84
2016-06-24T06:54:13.525Z,957.8
2016-06-24T06:55:13.431Z,957.77
2016-06-24T06:56:13.363Z,957.85
2016-06-24T06:57:13.301Z,957.83
2016-06-24T06:58:13.285Z,957.86
2016-06-24T06:59:13.341Z,957.9
2016-06-24T07:00:13.401Z,957.91
2016-06-24T07:01:13.545Z,957.88
2016-06-24T07:02:13.384Z,957.84
2016-06-24T07:03:13.345Z,957.86
2016-06-24T07:04:13.374Z,957.86
2016-06-24T07:05:13.486Z,957.83
2016-06-24T07:06:13.502Z,957.78
2016-06-24T07:07:13.387Z,957.77
2016-06-24T07:08:13.347Z,957.82
2016-06-24T07:09:13.375Z,957.8
2016-06-24T07:10:13.598Z,957.87
2016-06-24T07:11:13.406Z,957.88
2016-06-24T07:12:13.456Z,957.85
2016-06-24T07:13:13.413Z,957.85
2016-06-24T07:14:13.600Z,957.83
2016-06-24T07:15:13.686Z,957.77
2016-06-24T07:16:13.418Z,957.78
2016-06-24T07:17:13.721Z,957.76
2016-06-24T07:18:13.646Z,957.77
2016-06-24T07:19:13.548Z,957.73
2016-06-24T07:20:13.582Z,957.77
2016-06-24T07:21:13.487Z,957.74
2016-06-24T07:22:13.775Z,957.73
2016-06-24T07:23:13.674Z,957.73
2016-06-24T07:24:13.596Z,957.77
2016-06-24T07:25:13.643Z,957.7
2016-06-24T07:27:13.731Z,957.74
2016-06-24T07:28:13.569Z,957.72
2016-06-24T07:29:13.577Z,957.75
2016-06-24T07:30:13.590Z,957.69
2016-06-24T07:31:13.609Z,957.76
2016-06-24T07:32:13.727Z,957.75
2016-06-24T07:33:13.598Z,957.74
2016-06-24T07:34:13.731Z,957.72
2016-06-24T07:35:13.729Z,957.74
2016-06-24T07:36:13.864Z,957.78
2016-06-24T07:37:13.631Z,957.73
2016-06-24T07:38:13.681Z,957.77
2016-06-24T07:39:13.767Z,957.76
2016-06-24T07:40:13.777Z,957.76
2016-06-24T07:41:13.703Z,957.72
2016-06-24T07:42:13.978Z,957.67
2016-06-24T07:43:13.994Z,957.68
2016-06-24T07:44:14.138Z,957.67
2016-06-24T07:45:13.941Z,957.67
2016-06-24T07:46:14.043Z,957.63
2016-06-24T07:47:13.808Z,957.63
2016-06-24T07:48:14.039Z,957.63
2016-06-24T07:49:13.837Z,957.63
2016-06-24T07:50:13.894Z,957.61
2016-06-24T07:51:14.135Z,957.6
2016-06-24T07:52:13.907Z,957.64
2016-06-24T07:53:13.919Z,957.61
2016-06-24T07:54:14.050Z,957.61
2016-06-24T07:55:13.975Z,957.59
2016-06-24T07:56:13.910Z,957.6
2016-06-24T07:57:14.016Z,957.57
2016-06-24T07:58:13.922Z,957.56
2016-06-24T07:59:13.983Z,957.57
2016-06-24T08:00:13.980Z,957.59
2016-06-24T08:01:14.096Z,957.61
2016-06-24T08:02:14.113Z,957.64
2016-06-24T08:03:13.983Z,957.64
2016-06-24T08:04:14.067Z,957.62
2016-06-24T08:05:14.222Z,957.63
2016-06-24T08:06:14.087Z,957.66
2016-06-24T08:07:14.354Z,957.68
2016-06-24T08:08:15.141Z,957.65
2016-06-24T08:09:14.070Z,957.6
2016-06-24T08:10:14.263Z,957.61
2016-06-24T08:11:14.165Z,957.63
2016-06-24T08:12:14.115Z,957.6
2016-06-24T08:13:14.186Z,957.6
2016-06-24T08:14:14.171Z,957.59
2016-06-24T08:15:14.187Z,957.54
2016-06-24T08:16:14.284Z,957.58
2016-06-24T08:17:14.246Z,957.54
2016-06-24T08:18:14.294Z,957.56
2016-06-24T08:19:14.279Z,957.51
2016-06-24T08:20:14.250Z,957.52
2016-06-24T08:21:14.336Z,957.53
2016-06-24T08:22:14.306Z,957.54
2016-06-24T08:23:14.602Z,957.54
2016-06-24T08:24:14.582Z,957.49
2016-06-24T08:25:14.637Z,957.5
2016-06-24T08:26:14.344Z,957.46
2016-06-24T08:27:14.390Z,957.45
2016-06-24T08:28:14.655Z,957.45
2016-06-24T08:29:14.657Z,957.43
2016-06-24T08:30:14.508Z,957.38
2016-06-24T08:31:14.417Z,957.39
2016-06-24T08:32:14.505Z,957.37
2016-06-24T08:33:14.459Z,957.35
2016-06-24T08:34:14.557Z,957.29
2016-06-24T08:35:14.539Z,957.35
2016-06-24T08:36:14.482Z,957.31
2016-06-24T08:37:14.512Z,957.32
2016-06-24T08:38:14.498Z,957.31
2016-06-24T08:39:14.593Z,957.3
2016-06-24T08:40:14.533Z,957.32
2016-06-24T08:41:14.539Z,957.35
2016-06-24T08:42:14.577Z,957.3
2016-06-24T08:43:14.673Z,957.33
2016-06-24T08:44:14.581Z,957.31
2016-06-24T08:45:14.557Z,957.27
2016-06-24T08:46:14.633Z,957.28
2016-06-24T08:47:14.813Z,957.23
2016-06-24T08:48:14.819Z,957.24
2016-06-24T08:49:14.810Z,957.2
2016-06-24T08:50:14.889Z,957.21
2016-06-24T08:51:14.885Z,957.21
2016-06-24T08:52:14.881Z,957.24
2016-06-24T08:53:14.878Z,957.22
2016-06-24T08:54:14.660Z,957.22
2016-06-24T08:55:14.663Z,957.2
2016-06-24T08:56:14.888Z,957.2
2016-06-24T08:57:14.779Z,957.23
2016-06-24T08:58:14.814Z,957.23
2016-06-24T08:59:14.894Z,957.29
2016-06-24T09:00:14.838Z,957.26
2016-06-24T09:01:15.038Z,957.26
2016-06-24T09:02:15.064Z,957.26
2016-06-24T09:03:14.773Z,957.24
2016-06-24T09:04:14.959Z,957.19
2016-06-24T09:05:14.979Z,957.2
2016-06-24T09:06:14.745Z,957.18
2016-06-24T09:07:14.749Z,957.18
2016-06-24T09:08:14.778Z,957.18
2016-06-24T09:09:14.828Z,957.19
2016-06-24T09:10:14.813Z,957.19
2016-06-24T09:11:14.954Z,957.23
2016-06-24T09:12:15.023Z,957.25
2016-06-24T09:13:15.031Z,957.18
2016-06-24T09:14:15.033Z,957.19
2016-06-24T09:15:14.887Z,957.21
2016-06-24T09:16:15.060Z,957.21
2016-06-24T09:17:15.062Z,957.23
2016-06-24T09:18:15.110Z,957.22
2016-06-24T09:19:14.889Z,957.22
2016-06-24T09:20:15.179Z,957.22
2016-06-24T09:21:14.920Z,957.18
2016-06-24T09:22:14.828Z,957.22
2016-06-24T09:23:14.918Z,957.25
2016-06-24T09:24:15.234Z,957.22
2016-06-24T09:25:15.262Z,957.23
2016-06-24T09:26:15.126Z,957.22
2016-06-24T09:27:15.148Z,957.23
2016-06-24T09:28:15.287Z,957.19
2016-06-24T09:29:15.141Z,957.22
2016-06-24T09:30:15.070Z,957.21
2016-06-24T09:31:15.209Z,957.19
2016-06-24T09:32:15.448Z,957.17
2016-06-24T09:33:14.975Z,957.18
2016-06-24T09:34:15.005Z,957.15
2016-06-24T09:35:15.163Z,957.17
2016-06-24T09:36:15.091Z,957.15
2016-06-24T09:37:15.207Z,957.1
2016-06-24T09:38:15.318Z,957.11
2016-06-24T09:39:15.246Z,957.11
2016-06-24T09:40:15.218Z,957.1
2016-06-24T09:41:15.300Z,957.11
2016-06-24T09:42:15.280Z,957.09
2016-06-24T09:43:15.231Z,957.09
2016-06-24T09:44:15.362Z,957.08
2016-06-24T09:45:15.249Z,957.11
2016-06-24T09:46:15.079Z,957.07
2016-06-24T09:47:15.057Z,957.01
2016-06-24T09:48:15.188Z,957.06
2016-06-24T09:49:15.100Z,957.07
2016-06-24T09:50:15.367Z,957.07
2016-06-24T09:51:15.147Z,957.03
2016-06-24T09:52:15.098Z,957.07
2016-06-24T09:53:15.098Z,957.03
2016-06-24T09:54:15.154Z,957.03
2016-06-24T09:55:15.138Z,957.09
2016-06-24T09:56:15.323Z,957.05
2016-06-24T09:57:15.397Z,957.02
2016-06-24T09:58:15.303Z,957
2016-06-24T09:59:15.395Z,957.03
2016-06-24T10:00:15.374Z,957.01
2016-06-24T10:01:15.358Z,957.02
2016-06-24T10:02:15.197Z,956.98
2016-06-24T10:03:15.320Z,957.02
2016-06-24T10:04:15.402Z,956.97
2016-06-24T10:05:15.218Z,957.02
2016-06-24T10:06:15.219Z,957
2016-06-24T10:07:15.223Z,956.99
2016-06-24T10:08:15.427Z,956.99
2016-06-24T10:09:15.454Z,956.98
2016-06-24T10:10:15.546Z,956.94
2016-06-24T10:11:15.426Z,956.97
2016-06-24T10:12:16.814Z,956.95
2016-06-24T10:13:15.564Z,956.93
2016-06-24T10:14:15.466Z,956.9
2016-06-24T10:15:15.290Z,956.93
2016-06-24T10:16:15.275Z,956.89
2016-06-24T10:17:15.280Z,956.91
2016-06-24T10:18:15.373Z,956.92
2016-06-24T10:19:15.406Z,956.9
2016-06-24T10:20:15.473Z,956.93
2016-06-24T10:21:15.237Z,956.87
2016-06-24T10:22:15.398Z,956.91
2016-06-24T10:23:15.354Z,956.9
2016-06-24T10:24:15.395Z,956.93
2016-06-24T10:25:15.470Z,956.94
2016-06-24T10:26:15.330Z,956.92
2016-06-24T10:27:15.408Z,956.91
2016-06-24T10:28:15.337Z,956.9
2016-06-24T10:29:15.357Z,956.92
2016-06-24T10:30:15.384Z,956.88
2016-06-24T10:31:15.446Z,956.87
2016-06-24T10:32:15.380Z,956.83
2016-06-24T10:33:15.554Z,956.84
2016-06-24T10:34:15.575Z,956.8
2016-06-24T10:35:15.415Z,956.81
2016-06-24T10:36:16.021Z,956.81
2016-06-24T10:37:15.685Z,956.83
2016-06-24T10:38:15.767Z,956.81
2016-06-24T10:39:15.523Z,956.84
2016-06-24T10:40:15.445Z,956.76
2016-06-24T10:41:15.511Z,956.79
2016-06-24T10:42:15.430Z,956.8
2016-06-24T10:43:15.448Z,956.78
2016-06-24T10:44:16.114Z,956.78
2016-06-24T10:45:15.441Z,956.77
2016-06-24T10:46:15.460Z,956.76
2016-06-24T10:47:15.687Z,956.74
2016-06-24T10:48:16.221Z,956.74
2016-06-24T10:50:15.701Z,956.7
2016-06-24T10:51:15.689Z,956.69
2016-06-24T10:52:15.728Z,956.66
2016-06-24T10:53:15.702Z,956.68
2016-06-24T10:54:15.731Z,956.67
2016-06-24T10:55:15.747Z,956.67
2016-06-24T10:56:15.537Z,956.64
2016-06-24T10:57:15.561Z,956.6
2016-06-24T10:58:15.525Z,956.56
2016-06-24T10:59:15.611Z,956.58
2016-06-24T11:00:15.584Z,956.57
2016-06-24T11:01:15.563Z,956.57
2016-06-24T11:02:15.588Z,956.58
2016-06-24T11:03:15.686Z,956.55
2016-06-24T11:04:15.580Z,956.54
2016-06-24T11:05:15.641Z,956.53
2016-06-24T11:06:15.642Z,956.54
2016-06-24T11:07:15.670Z,956.52
2016-06-24T11:08:15.941Z,956.51
2016-06-24T11:09:15.796Z,956.47
2016-06-24T11:10:15.856Z,956.49
2016-06-24T11:11:15.841Z,956.49
2016-06-24T11:12:15.929Z,956.47
2016-06-24T11:13:16.059Z,956.48
2016-06-24T11:14:15.871Z,956.46
2016-06-24T11:15:15.918Z,956.42
2016-06-24T11:16:15.886Z,956.49
2016-06-24T11:17:15.875Z,956.46
2016-06-24T11:18:15.933Z,956.46
2016-06-24T11:19:15.895Z,956.47
2016-06-24T11:20:15.951Z,956.5
2016-06-24T11:21:15.722Z,956.49
2016-06-24T11:22:15.944Z,956.45
2016-06-24T11:23:16.026Z,956.44
2016-06-24T11:24:15.702Z,956.42
2016-06-24T11:25:15.699Z,956.43
2016-06-24T11:26:15.753Z,956.4
2016-06-24T11:27:15.748Z,956.42
2016-06-24T11:28:15.780Z,956.41
2016-06-24T11:29:15.760Z,956.4
2016-06-24T11:30:16.004Z,956.39
2016-06-24T11:31:15.786Z,956.37
2016-06-24T11:32:16.002Z,956.35
2016-06-24T11:33:16.006Z,956.36
2016-06-24T11:34:15.981Z,956.38
2016-06-24T11:35:15.857Z,956.32
2016-06-24T11:36:16.006Z,956.33
2016-06-24T11:37:16.065Z,956.33
2016-06-24T11:38:16.026Z,956.32
2016-06-24T11:39:16.143Z,956.29
2016-06-24T11:40:16.112Z,956.3
2016-06-24T11:41:16.149Z,956.27
2016-06-24T11:42:16.078Z,956.26
2016-06-24T11:43:16.394Z,956.25
2016-06-24T11:44:16.181Z,956.26
2016-06-24T11:45:16.283Z,956.26
2016-06-24T11:46:16.128Z,956.22
2016-06-24T11:47:16.091Z,956.26
2016-06-24T11:48:16.138Z,956.22
2016-06-24T11:49:16.101Z,956.19
2016-06-24T11:50:16.115Z,956.25
2016-06-24T11:51:16.221Z,956.22
2016-06-24T11:52:16.184Z,956.19
2016-06-24T11:53:16.161Z,956.18
2016-06-24T11:54:15.931Z,956.18
2016-06-24T11:55:15.951Z,956.2
2016-06-24T11:56:16.015Z,956.17
2016-06-24T11:57:15.934Z,956.12
2016-06-24T11:58:15.931Z,956.15
2016-06-24T11:59:15.926Z,956.16
2016-06-24T12:00:16.023Z,956.16
2016-06-24T12:01:15.980Z,956.15
2016-06-24T12:02:15.993Z,956.12
2016-06-24T12:03:16.033Z,956.06
2016-06-24T12:04:16.266Z,956.07
2016-06-24T12:05:16.151Z,956.08
2016-06-24T12:06:16.298Z,956.02
2016-06-24T12:07:16.069Z,956.03
2016-06-24T12:08:16.232Z,955.99
2016-06-24T12:09:16.170Z,955.95
2016-06-24T12:10:16.282Z,955.96
2016-06-24T12:11:16.236Z,955.99
2016-06-24T12:12:16.169Z,955.96
2016-06-24T12:13:16.397Z,955.98
2016-06-24T12:14:16.182Z,955.94
2016-06-24T12:15:16.058Z,955.95
2016-06-24T12:16:16.229Z,955.95
2016-06-24T12:17:16.097Z,955.93
2016-06-24T12:18:16.298Z,955.93
2016-06-24T12:19:16.371Z,955.93
2016-06-24T12:20:16.144Z,955.95
2016-06-24T12:21:16.140Z,955.93
2016-06-24T12:22:16.398Z,955.92
2016-06-24T12:23:16.403Z,955.9
2016-06-24T12:24:16.167Z,955.92
2016-06-24T12:25:16.405Z,955.92
2016-06-24T12:26:17.042Z,955.9
2016-06-24T12:27:16.346Z,955.91
2016-06-24T12:28:16.170Z,955.91
2016-06-24T12:29:16.297Z,955.93
2016-06-24T12:30:16.504Z,955.89
2016-06-24T12:31:16.193Z,955.89
2016-06-24T12:32:16.209Z,955.88
2016-06-24T12:33:16.271Z,955.92
2016-06-24T12:34:16.214Z,955.85
2016-06-24T12:35:16.318Z,955.84
2016-06-24T12:36:16.206Z,955.79
2016-06-24T12:37:16.369Z,955.78
2016-06-24T12:38:17.419Z,955.78
2016-06-24T12:39:16.174Z,955.76
2016-06-24T12:40:16.400Z,955.72
2016-06-24T12:41:16.273Z,955.7